Time;durP1;ratioP1;P1;durP2;ratioP2;P2;SDS_P1;SDS_P2;PMS_P1;PMS_P2;Temp;Humidity;BMP_temperature;BMP_pressure;BME280_temperature;BME280_humidity;BME280_pressure;Samples;Min_cycle;Max_cycle;Signal;HPM_P1;HPM_P2
2023/10/05 00:02:10;;;;;;;2.67;2.47;;;;;;;;;;5013889;28;20884;-67
2023/10/05 00:04:40;;;;;;;2.90;2.80;;;;;;;;;;5013471;28;20429;-67
2023/10/05 00:07:11;;;;;;;3.50;3.30;;;;;;;;;;5014053;28;20464;-67
2023/10/05 00:09:40;;;;;;;2.57;2.47;;;;;;;;;;5014199;28;20404;-67
2023/10/05 00:12:12;;;;;;;3.17;2.90;;;;;;;;;;5014253;28;20432;-67
2023/10/05 00:14:40;;;;;;;3.10;2.83;;;;;;;;;;5013659;28;20416;-67
2023/10/05 00:17:07;;;;;;;4.73;2.40;;;;;;;;;;5013986;28;20832;-67
2023/10/05 00:19:36;;;;;;;2.27;2.17;;;;;;;;;;5013705;28;20427;-67
2023/10/05 00:22:02;;;;;;;6.93;2.80;;;;;;;;;;5014054;28;20440;-67
2023/10/05 00:26:58;;;;;;;1.93;1.93;;;;;;;;;;5012187;28;20452;-67
2023/10/05 00:31:50;;;;;;;3.10;3.00;;;;;;;;;;5012715;28;20896;-67
2023/10/05 00:34:24;;;;;;;3.77;2.30;;;;;;;;;;5012629;28;20427;-67
2023/10/05 00:36:53;;;;;;;2.53;2.43;;;;;;;;;;5011934;28;20920;-67
2023/10/05 00:39:20;;;;;;;3.93;2.80;;;;;;;;;;5012302;28;20923;-67
2023/10/05 00:41:49;;;;;;;4.50;2.60;;;;;;;;;;5012314;28;20412;-67
2023/10/05 00:44:15;;;;;;;6.67;3.03;;;;;;;;;;5012555;28;20490;-67
2023/10/05 00:46:48;;;;;;;2.70;2.40;;;;;;;;;;5012303;28;20432;-67
2023/10/05 00:49:19;;;;;;;3.60;3.30;;;;;;;;;;5012477;28;20417;-67
2023/10/05 00:54:31;;;;;;;2.80;2.63;;;;;;;;;;5012692;28;20404;-67
2023/10/05 00:57:06;;;;;;;4.10;2.83;;;;;;;;;;5011905;28;20819;-60
2023/10/05 00:59:32;;;;;;;4.40;2.30;;;;;;;;;;5011038;28;20447;-60
2023/10/05 01:04:35;;;;;;;3.57;2.73;;;;;;;;;;5011713;28;20436;-61
2023/10/05 01:07:17;;;;;;;2.87;2.67;;;;;;;;;;5010692;28;20521;-61
2023/10/05 01:09:56;;;;;;;3.50;3.20;;;;;;;;;;5012282;28;20408;-60
2023/10/05 01:14:58;;;;;;;3.90;3.37;;;;;;;;;;5012192;28;20884;-60
2023/10/05 01:17:28;;;;;;;4.07;3.13;;;;;;;;;;5012201;28;20435;-60
2023/10/05 01:19:58;;;;;;;7.40;2.73;;;;;;;;;;5011922;28;20420;-63
2023/10/05 01:22:32;;;;;;;2.70;2.60;;;;;;;;;;5012297;28;20579;-63
2023/10/05 01:24:59;;;;;;;3.15;2.60;;;;;;;;;;4965757;28;1306414;-61
2023/10/05 01:27:29;;;;;;;4.83;2.40;;;;;;;;;;5010910;28;20201;-60
2023/10/05 01:29:56;;;;;;;3.20;2.87;;;;;;;;;;5012947;28;20408;-62
2023/10/05 01:32:21;;;;;;;3.90;3.60;;;;;;;;;;5012355;28;20408;-64
2023/10/05 01:34:50;;;;;;;3.50;3.30;;;;;;;;;;5011116;28;20939;-63
2023/10/05 01:37:25;;;;;;;3.60;2.77;;;;;;;;;;5010859;28;20436;-63
2023/10/05 01:39:52;;;;;;;2.63;2.43;;;;;;;;;;5012325;28;20416;-63
2023/10/05 01:42:18;;;;;;;2.97;2.77;;;;;;;;;;5012751;28;20412;-62
2023/10/05 01:44:47;;;;;;;6.87;3.77;;;;;;;;;;5011269;28;20793;-63
2023/10/05 01:47:17;;;;;;;3.83;3.53;;;;;;;;;;5011934;28;20539;-63
2023/10/05 01:49:45;;;;;;;3.47;3.03;;;;;;;;;;5012288;28;20409;-63
2023/10/05 01:52:11;;;;;;;3.40;3.10;;;;;;;;;;5012100;28;20424;-63
2023/10/05 01:54:37;;;;;;;3.50;3.00;;;;;;;;;;5012149;28;20405;-63
2023/10/05 01:57:07;;;;;;;5.73;2.70;;;;;;;;;;5011926;28;20420;-63
2023/10/05 01:59:34;;;;;;;3.70;3.03;;;;;;;;;;5012454;28;20479;-63
2023/10/05 02:02:15;;;;;;;3.30;3.03;;;;;;;;;;5012483;28;20848;-62
2023/10/05 02:04:44;;;;;;;5.63;3.10;;;;;;;;;;5011058;28;20778;-63
2023/10/05 02:07:21;;;;;;;4.20;3.07;;;;;;;;;;5012193;28;20981;-62
2023/10/05 02:09:49;;;;;;;4.87;3.20;;;;;;;;;;5011914;28;20919;-63
2023/10/05 02:12:15;;;;;;;3.20;3.00;;;;;;;;;;5010381;28;20447;-62
2023/10/05 02:14:43;;;;;;;3.50;3.20;;;;;;;;;;5012146;28;20413;-63
2023/10/05 02:17:10;;;;;;;7.90;3.03;;;;;;;;;;5011326;28;20416;-63
2023/10/05 02:19:37;;;;;;;3.07;2.87;;;;;;;;;;5012078;28;20427;-63
2023/10/05 02:22:10;;;;;;;3.10;2.80;;;;;;;;;;5012016;28;20904;-63
2023/10/05 02:24:40;;;;;;;2.97;2.67;;;;;;;;;;5011293;28;20467;-63
2023/10/05 02:27:11;;;;;;;2.90;2.73;;;;;;;;;;5008036;28;20523;-63
2023/10/05 02:29:40;;;;;;;3.10;2.90;;;;;;;;;;4991893;28;20492;-63
2023/10/05 02:32:10;;;;;;;4.40;3.13;;;;;;;;;;4992178;28;20417;-62
2023/10/05 02:34:59;;;;;;;3.10;2.80;;;;;;;;;;4992020;28;20433;-62
2023/10/05 02:37:28;;;;;;;6.57;3.00;;;;;;;;;;4992368;28;20441;-63
2023/10/05 02:39:57;;;;;;;4.50;3.07;;;;;;;;;;4991951;28;20414;-63
2023/10/05 02:42:26;;;;;;;2.40;2.20;;;;;;;;;;4991674;28;20439;-62
2023/10/05 02:44:54;;;;;;;4.13;2.87;;;;;;;;;;4992457;28;20425;-63
2023/10/05 02:47:23;;;;;;;3.67;3.17;;;;;;;;;;4992189;28;20493;-63
2023/10/05 02:49:49;;;;;;;2.40;2.30;;;;;;;;;;4991916;28;20421;-62
2023/10/05 02:52:16;;;;;;;3.43;3.17;;;;;;;;;;4992279;28;20425;-62
2023/10/05 02:54:49;;;;;;;8.20;3.40;;;;;;;;;;4991981;28;20467;-62
2023/10/05 02:57:19;;;;;;;2.90;2.60;;;;;;;;;;4992120;28;20422;-63
2023/10/05 02:59:50;;;;;;;6.83;3.00;;;;;;;;;;4990977;28;20441;-63
2023/10/05 03:02:18;;;;;;;4.77;2.97;;;;;;;;;;4991700;28;20422;-63
2023/10/05 03:04:45;;;;;;;5.10;2.93;;;;;;;;;;4991955;28;20413;-62
2023/10/05 03:07:14;;;;;;;5.10;2.73;;;;;;;;;;4991933;28;20469;-63
2023/10/05 03:09:43;;;;;;;3.57;3.27;;;;;;;;;;4990678;28;20465;-63
2023/10/05 03:12:13;;;;;;;7.13;2.47;;;;;;;;;;4992040;28;20414;-63
2023/10/05 03:14:50;;;;;;;5.07;3.20;;;;;;;;;;4991829;28;20794;-62
2023/10/05 03:17:19;;;;;;;3.07;2.93;;;;;;;;;;4995375;28;20472;-63
2023/10/05 03:19:46;;;;;;;3.20;3.00;;;;;;;;;;4993984;28;20483;-63
2023/10/05 03:22:12;;;;;;;4.40;2.90;;;;;;;;;;4994996;28;20508;-63
2023/10/05 03:24:38;;;;;;;2.60;2.40;;;;;;;;;;4994115;28;20588;-62
2023/10/05 03:27:05;;;;;;;2.47;2.37;;;;;;;;;;4994911;28;20464;-62
2023/10/05 03:29:35;;;;;;;4.13;2.50;;;;;;;;;;4995516;28;20422;-62
2023/10/05 03:34:34;;;;;;;4.23;2.47;;;;;;;;;;4995250;28;20484;-62
2023/10/05 03:37:04;;;;;;;2.50;2.40;;;;;;;;;;4995209;28;20416;-62
2023/10/05 03:39:33;;;;;;;2.87;2.77;;;;;;;;;;4994940;28;20440;-61
2023/10/05 03:42:00;;;;;;;2.90;2.70;;;;;;;;;;4995286;28;20516;-61
2023/10/05 03:44:28;;;;;;;3.10;3.00;;;;;;;;;;4994972;28;20913;-62
2023/10/05 03:46:54;;;;;;;3.47;3.27;;;;;;;;;;4994821;28;20417;-62
2023/10/05 03:49:21;;;;;;;3.73;2.77;;;;;;;;;;4994730;28;20434;-61
2023/10/05 03:51:51;;;;;;;3.23;3.00;;;;;;;;;;4994744;28;20416;-62
2023/10/05 03:54:21;;;;;;;3.13;2.93;;;;;;;;;;4993615;28;20434;-62
2023/10/05 03:56:50;;;;;;;2.90;2.80;;;;;;;;;;4994936;28;20913;-61
2023/10/05 03:59:18;;;;;;;2.80;2.60;;;;;;;;;;4994518;28;20414;-61
2023/10/05 04:01:48;;;;;;;3.53;3.00;;;;;;;;;;4994629;28;20441;-61
2023/10/05 04:04:16;;;;;;;3.70;3.40;;;;;;;;;;4993933;28;20483;-62
2023/10/05 04:06:45;;;;;;;3.97;2.90;;;;;;;;;;4994639;28;20421;-61
2023/10/05 04:09:15;;;;;;;3.97;3.70;;;;;;;;;;4994311;28;20900;-62
2023/10/05 04:11:45;;;;;;;4.77;3.70;;;;;;;;;;4994390;28;20867;-62
2023/10/05 04:14:14;;;;;;;3.80;3.60;;;;;;;;;;4994880;28;20939;-62
2023/10/05 04:16:42;;;;;;;4.20;3.63;;;;;;;;;;4994103;28;20420;-62
2023/10/05 04:19:11;;;;;;;4.50;3.20;;;;;;;;;;4994171;28;20873;-62
2023/10/05 04:21:37;;;;;;;3.43;3.10;;;;;;;;;;4994542;28;20430;-62
2023/10/05 04:24:03;;;;;;;2.90;2.70;;;;;;;;;;4993879;28;20873;-62
2023/10/05 04:26:33;;;;;;;4.27;3.77;;;;;;;;;;4993533;28;20464;-62
2023/10/05 04:29:04;;;;;;;3.17;3.07;;;;;;;;;;4993546;28;20473;-62
2023/10/05 04:31:32;;;;;;;3.67;3.37;;;;;;;;;;4994112;28;20838;-62
2023/10/05 04:33:59;;;;;;;3.30;3.20;;;;;;;;;;4993970;28;20802;-62
2023/10/05 04:36:27;;;;;;;3.43;3.00;;;;;;;;;;4993693;28;20940;-62
2023/10/05 04:38:58;;;;;;;3.53;3.33;;;;;;;;;;4993713;28;20520;-62
2023/10/05 04:41:28;;;;;;;4.00;3.60;;;;;;;;;;4994047;28;20422;-62
2023/10/05 04:43:54;;;;;;;4.00;3.70;;;;;;;;;;4994013;28;20425;-62
2023/10/05 04:46:21;;;;;;;3.87;3.20;;;;;;;;;;4993308;28;20425;-62
2023/10/05 04:48:56;;;;;;;7.50;3.57;;;;;;;;;;4993755;28;20469;-62
2023/10/05 04:51:30;;;;;;;4.23;3.93;;;;;;;;;;4993519;28;20888;-62
2023/10/05 04:53:59;;;;;;;3.93;3.43;;;;;;;;;;4993565;28;20821;-62
2023/10/05 04:56:35;;;;;;;5.43;3.73;;;;;;;;;;4993305;28;20417;-62
2023/10/05 05:01:56;;;;;;;12.10;6.20;;;;;;;;;;4993379;28;20409;-63
2023/10/05 05:04:52;;;;;;;12.87;8.70;;;;;;;;;;4993490;28;20421;-62
2023/10/05 05:07:21;;;;;;;15.60;9.80;;;;;;;;;;4993287;28;20559;-63
2023/10/05 05:09:47;;;;;;;19.37;12.80;;;;;;;;;;4993283;28;20418;-63
2023/10/05 05:12:20;;;;;;;12.30;9.30;;;;;;;;;;4993667;28;20400;-62
2023/10/05 05:14:49;;;;;;;6.07;5.43;;;;;;;;;;4992854;28;20410;-62
2023/10/05 05:17:18;;;;;;;10.73;5.00;;;;;;;;;;4993075;28;20505;-62
2023/10/05 05:19:47;;;;;;;5.03;4.57;;;;;;;;;;4992944;28;20417;-62
2023/10/05 05:22:13;;;;;;;6.83;5.97;;;;;;;;;;4992923;28;20929;-62
2023/10/05 05:24:43;;;;;;;4.50;4.13;;;;;;;;;;4993140;28;20429;-62
2023/10/05 05:29:45;;;;;;;5.20;4.80;;;;;;;;;;4993260;28;20425;-62
2023/10/05 05:32:11;;;;;;;7.00;4.57;;;;;;;;;;4993325;28;20406;-63
2023/10/05 05:34:38;;;;;;;7.17;4.60;;;;;;;;;;4993128;28;20414;-62
2023/10/05 05:37:04;;;;;;;4.33;4.07;;;;;;;;;;4992646;28;20524;-62
2023/10/05 05:39:37;;;;;;;5.23;4.53;;;;;;;;;;4992583;28;20413;-63
2023/10/05 05:42:06;;;;;;;6.07;5.27;;;;;;;;;;4993466;28;20422;-61
2023/10/05 05:44:34;;;;;;;10.73;5.20;;;;;;;;;;4992457;28;20475;-62
2023/10/05 05:47:10;;;;;;;6.33;4.57;;;;;;;;;;4992464;28;20441;-62
2023/10/05 05:49:39;;;;;;;18.23;13.03;;;;;;;;;;4992676;28;20439;-62
2023/10/05 05:52:05;;;;;;;32.63;24.57;;;;;;;;;;4992216;28;20422;-62
2023/10/05 05:54:32;;;;;;;5.27;4.97;;;;;;;;;;4992117;28;20429;-62
2023/10/05 05:56:58;;;;;;;6.03;5.13;;;;;;;;;;4992183;28;20897;-62
2023/10/05 05:59:24;;;;;;;7.20;4.83;;;;;;;;;;4992671;28;20507;-62
2023/10/05 06:01:50;;;;;;;5.17;4.73;;;;;;;;;;4990067;28;20469;-61
2023/10/05 06:04:21;;;;;;;4.57;4.33;;;;;;;;;;4990598;28;20879;-62
2023/10/05 06:06:48;;;;;;;8.03;4.93;;;;;;;;;;4995446;28;20430;-62
2023/10/05 06:09:19;;;;;;;7.10;6.17;;;;;;;;;;5000468;28;20463;-64
2023/10/05 06:11:45;;;;;;;8.20;7.50;;;;;;;;;;5001765;28;20420;-62
2023/10/05 06:14:11;;;;;;;8.60;7.53;;;;;;;;;;4995916;28;20426;-63
2023/10/05 06:16:37;;;;;;;10.47;9.23;;;;;;;;;;4998105;28;20416;-63
2023/10/05 06:19:03;;;;;;;10.30;9.30;;;;;;;;;;4999921;28;20417;-64
2023/10/05 06:21:29;;;;;;;91.90;60.17;;;;;;;;;;5003969;28;20486;-63
2023/10/05 06:23:55;;;;;;;9.60;8.70;;;;;;;;;;4995743;28;20432;-63
2023/10/05 06:26:21;;;;;;;7.03;6.40;;;;;;;;;;4992412;28;20534;-63
2023/10/05 06:28:48;;;;;;;6.13;5.20;;;;;;;;;;4992797;28;20475;-63
2023/10/05 06:31:14;;;;;;;5.60;5.10;;;;;;;;;;4990222;28;20452;-64
2023/10/05 06:33:42;;;;;;;5.23;4.83;;;;;;;;;;4991291;28;20889;-63
2023/10/05 06:36:08;;;;;;;6.30;5.33;;;;;;;;;;4991558;28;20437;-63
2023/10/05 06:38:35;;;;;;;6.00;5.43;;;;;;;;;;4991799;28;20433;-62
2023/10/05 06:41:03;;;;;;;5.27;4.80;;;;;;;;;;4995132;28;20421;-62
2023/10/05 06:43:35;;;;;;;5.83;5.33;;;;;;;;;;4990802;28;20418;-63
2023/10/05 06:46:09;;;;;;;24.37;19.23;;;;;;;;;;4991372;28;20422;-62
2023/10/05 06:48:35;;;;;;;8.43;5.90;;;;;;;;;;4991281;28;20483;-62
2023/10/05 06:51:01;;;;;;;7.90;6.13;;;;;;;;;;4992862;28;20806;-62
2023/10/05 06:53:27;;;;;;;8.00;5.87;;;;;;;;;;4995108;28;20910;-63
2023/10/05 06:55:55;;;;;;;7.90;6.03;;;;;;;;;;4994786;28;20433;-62
2023/10/05 06:58:24;;;;;;;8.17;6.30;;;;;;;;;;4995374;28;20823;-63
2023/10/05 07:00:52;;;;;;;15.63;6.40;;;;;;;;;;4993721;28;20490;-64
2023/10/05 07:03:20;;;;;;;8.90;6.57;;;;;;;;;;4994377;28;20471;-64
2023/10/05 07:05:46;;;;;;;8.30;6.47;;;;;;;;;;4994711;28;20736;-62
2023/10/05 07:08:14;;;;;;;63.63;47.23;;;;;;;;;;5002686;28;20468;-62
2023/10/05 07:10:40;;;;;;;29.43;22.00;;;;;;;;;;5014574;28;20447;-62
2023/10/05 07:13:09;;;;;;;7.70;6.03;;;;;;;;;;5014130;28;20428;-62
2023/10/05 07:15:35;;;;;;;5.20;4.90;;;;;;;;;;5014515;28;20409;-63
2023/10/05 07:18:03;;;;;;;5.90;5.30;;;;;;;;;;5014244;28;20412;-62
2023/10/05 07:20:29;;;;;;;5.53;5.10;;;;;;;;;;5013763;28;20420;-62
2023/10/05 07:22:56;;;;;;;8.10;5.80;;;;;;;;;;5014073;28;20444;-62
2023/10/05 07:25:23;;;;;;;6.00;5.53;;;;;;;;;;5014105;28;20428;-62
2023/10/05 07:27:49;;;;;;;6.50;5.80;;;;;;;;;;5012648;28;20560;-62
2023/10/05 07:30:15;;;;;;;10.73;6.40;;;;;;;;;;5013968;28;20420;-62
2023/10/05 07:32:41;;;;;;;13.50;6.97;;;;;;;;;;5013830;28;20445;-62
2023/10/05 07:35:09;;;;;;;11.20;6.33;;;;;;;;;;5013816;28;20831;-61
2023/10/05 07:37:36;;;;;;;9.60;5.60;;;;;;;;;;5014174;28;20914;-62
2023/10/05 07:40:09;;;;;;;8.23;6.43;;;;;;;;;;5009327;28;20428;-64
2023/10/05 07:42:37;;;;;;;12.20;6.20;;;;;;;;;;5013963;28;20409;-61
2023/10/05 07:45:07;;;;;;;9.13;7.20;;;;;;;;;;5011956;28;20479;-62
2023/10/05 07:47:33;;;;;;;8.60;6.93;;;;;;;;;;5013441;28;20653;-62
2023/10/05 07:49:59;;;;;;;8.10;6.63;;;;;;;;;;5014007;28;20433;-62
2023/10/05 07:52:25;;;;;;;6.80;6.27;;;;;;;;;;5012985;28;20761;-61
2023/10/05 07:54:52;;;;;;;9.17;7.10;;;;;;;;;;5013421;28;20467;-62
2023/10/05 07:57:21;;;;;;;7.77;7.00;;;;;;;;;;5013580;28;20818;-61
2023/10/05 07:59:49;;;;;;;7.50;6.80;;;;;;;;;;5013573;28;20471;-61
2023/10/05 08:02:15;;;;;;;11.37;6.30;;;;;;;;;;5011903;28;20531;-61
2023/10/05 08:04:46;;;;;;;8.27;7.30;;;;;;;;;;5013456;28;20991;-61
2023/10/05 08:07:12;;;;;;;8.13;7.33;;;;;;;;;;5013669;28;20511;-61
2023/10/05 08:09:41;;;;;;;122.10;63.97;;;;;;;;;;5013635;28;20414;-61
2023/10/05 08:12:07;;;;;;;702.67;485.90;;;;;;;;;;5012778;28;20833;-61
2023/10/05 08:14:33;;;;;;;51.50;28.00;;;;;;;;;;5012491;28;20951;-62
2023/10/05 08:17:03;;;;;;;138.03;65.83;;;;;;;;;;5013065;28;20402;-62
2023/10/05 08:19:29;;;;;;;28.33;17.03;;;;;;;;;;5012491;28;20405;-62
2023/10/05 08:21:55;;;;;;;18.67;10.50;;;;;;;;;;5012514;28;20944;-63
2023/10/05 08:24:23;;;;;;;14.17;6.90;;;;;;;;;;4984132;28;20962;-62
2023/10/05 08:26:49;;;;;;;10.97;7.80;;;;;;;;;;5012133;28;20441;-61
2023/10/05 08:29:22;;;;;;;11.57;7.87;;;;;;;;;;5012890;28;20951;-62
2023/10/05 08:31:48;;;;;;;12.17;7.33;;;;;;;;;;5011891;28;20508;-62
2023/10/05 08:34:20;;;;;;;8.43;7.20;;;;;;;;;;5012422;28;20836;-62
2023/10/05 08:36:46;;;;;;;13.40;7.57;;;;;;;;;;5013175;28;20413;-62
2023/10/05 08:39:15;;;;;;;8.53;6.47;;;;;;;;;;5012571;28;20483;-62
2023/10/05 08:41:44;;;;;;;25.33;7.20;;;;;;;;;;5012356;28;20449;-62
2023/10/05 08:44:11;;;;;;;14.47;8.60;;;;;;;;;;5012284;28;20788;-62
2023/10/05 08:46:41;;;;;;;8.67;6.80;;;;;;;;;;5012482;28;20451;-62
2023/10/05 08:49:09;;;;;;;9.53;7.73;;;;;;;;;;5012315;28;20485;-61
2023/10/05 08:51:36;;;;;;;12.20;8.10;;;;;;;;;;5012191;28;20525;-62
2023/10/05 08:54:02;;;;;;;8.00;6.87;;;;;;;;;;5011770;28;20409;-62
2023/10/05 08:56:31;;;;;;;12.50;7.73;;;;;;;;;;4978477;28;20438;-62
2023/10/05 08:58:59;;;;;;;10.17;7.57;;;;;;;;;;4993125;28;20531;-62
2023/10/05 09:01:35;;;;;;;9.03;7.47;;;;;;;;;;4992805;28;20421;-62
2023/10/05 09:06:52;;;;;;;14.73;6.90;;;;;;;;;;4993393;28;20440;-62
2023/10/05 09:09:57;;;;;;;7.40;6.70;;;;;;;;;;4992654;28;20425;-62
2023/10/05 09:12:45;;;;;;;8.13;6.77;;;;;;;;;;4987526;28;20662;-62
2023/10/05 09:15:27;;;;;;;15.73;12.13;;;;;;;;;;4993358;28;20908;-62
2023/10/05 09:20:38;;;;;;;10.23;6.40;;;;;;;;;;4992444;28;20427;-62
2023/10/05 09:23:05;;;;;;;6.50;6.00;;;;;;;;;;4992771;28;20422;-62
2023/10/05 09:25:32;;;;;;;5.43;4.93;;;;;;;;;;4993274;28;20462;-62
2023/10/05 09:28:07;;;;;;;8.57;5.97;;;;;;;;;;4993070;28;20492;-62
2023/10/05 09:30:34;;;;;;;6.60;6.10;;;;;;;;;;4993152;28;20468;-64
2023/10/05 09:33:10;;;;;;;10.20;5.77;;;;;;;;;;4992765;28;20424;-62
2023/10/05 09:35:36;;;;;;;13.00;5.50;;;;;;;;;;4992753;28;20438;-62
2023/10/05 09:38:04;;;;;;;6.63;5.23;;;;;;;;;;4993315;28;20488;-62
2023/10/05 09:40:31;;;;;;;12.13;6.83;;;;;;;;;;4993089;28;20575;-62
2023/10/05 09:42:58;;;;;;;7.17;5.33;;;;;;;;;;4992956;28;20418;-62
2023/10/05 09:45:27;;;;;;;5.60;5.20;;;;;;;;;;4992792;28;20909;-63
2023/10/05 09:47:54;;;;;;;7.13;5.70;;;;;;;;;;4992394;28;20499;-64
2023/10/05 09:50:22;;;;;;;7.10;5.70;;;;;;;;;;4992760;28;20415;-63
2023/10/05 09:52:48;;;;;;;15.73;6.67;;;;;;;;;;4992483;28;20780;-63
2023/10/05 09:55:18;;;;;;;8.70;6.10;;;;;;;;;;4992828;28;20721;-63
2023/10/05 09:57:51;;;;;;;8.03;6.27;;;;;;;;;;4992273;28;20429;-63
2023/10/05 10:03:00;;;;;;;10.57;6.40;;;;;;;;;;4992838;28;20448;-62
2023/10/05 10:05:33;;;;;;;7.10;5.30;;;;;;;;;;4992535;28;20630;-62
2023/10/05 10:08:08;;;;;;;7.80;5.37;;;;;;;;;;4991394;28;20570;-63
2023/10/05 10:10:37;;;;;;;9.57;5.40;;;;;;;;;;4992701;28;20419;-62
2023/10/05 10:13:11;;;;;;;5.67;5.17;;;;;;;;;;4992845;28;20544;-62
2023/10/05 10:15:39;;;;;;;7.47;4.97;;;;;;;;;;4992491;28;20442;-62
2023/10/05 10:18:14;;;;;;;12.73;5.20;;;;;;;;;;4992150;28;20426;-63
2023/10/05 10:20:53;;;;;;;6.90;5.57;;;;;;;;;;4992484;28;20766;-63
2023/10/05 10:23:36;;;;;;;5.50;4.33;;;;;;;;;;4992476;28;20420;-63
2023/10/05 10:26:06;;;;;;;4.03;3.73;;;;;;;;;;4994479;28;20440;-62
2023/10/05 10:31:17;;;;;;;4.43;3.60;;;;;;;;;;4996587;28;20468;-64
2023/10/05 10:33:50;;;;;;;4.87;3.77;;;;;;;;;;4996226;28;20465;-64
2023/10/05 10:36:19;;;;;;;4.73;3.53;;;;;;;;;;4996524;28;20405;-63
2023/10/05 10:38:46;;;;;;;4.50;2.77;;;;;;;;;;4996556;28;20465;-64
2023/10/05 10:41:15;;;;;;;3.37;3.20;;;;;;;;;;4996079;28;20955;-63
2023/10/05 10:43:53;;;;;;;2.87;2.67;;;;;;;;;;4996088;28;20416;-64
2023/10/05 10:46:32;;;;;;;7.10;3.00;;;;;;;;;;4994292;28;20416;-64
2023/10/05 10:48:58;;;;;;;3.60;3.40;;;;;;;;;;4995803;28;20502;-63
2023/10/05 10:51:31;;;;;;;4.10;2.77;;;;;;;;;;4996323;28;20428;-63
2023/10/05 10:53:59;;;;;;;3.43;3.13;;;;;;;;;;4996255;28;20447;-63
2023/10/05 10:56:28;;;;;;;3.10;2.90;;;;;;;;;;4995974;28;20409;-63
2023/10/05 10:59:09;;;;;;;3.50;3.20;;;;;;;;;;4996334;28;20420;-62
2023/10/05 11:01:52;;;;;;;3.73;2.90;;;;;;;;;;4996481;28;20424;-63
2023/10/05 11:04:25;;;;;;;3.77;2.83;;;;;;;;;;4995767;28;20418;-63
2023/10/05 11:06:56;;;;;;;3.37;3.20;;;;;;;;;;4995818;28;20436;-63
2023/10/05 11:09:30;;;;;;;5.70;2.93;;;;;;;;;;4993736;28;20780;-63
2023/10/05 11:12:08;;;;;;;4.30;3.07;;;;;;;;;;4995442;28;20448;-63
2023/10/05 11:14:34;;;;;;;2.90;2.70;;;;;;;;;;4995421;28;20413;-63
2023/10/05 11:17:00;;;;;;;3.50;3.17;;;;;;;;;;4994868;28;20437;-63
2023/10/05 11:19:36;;;;;;;3.40;2.83;;;;;;;;;;4995266;28;20439;-62
2023/10/05 11:22:06;;;;;;;2.83;2.73;;;;;;;;;;4995442;28;20435;-63
2023/10/05 11:24:32;;;;;;;3.50;3.20;;;;;;;;;;4995096;28;20411;-63
2023/10/05 11:29:33;;;;;;;3.00;2.73;;;;;;;;;;4995441;28;20517;-63
2023/10/05 11:32:03;;;;;;;3.90;2.37;;;;;;;;;;4995323;28;20418;-63
2023/10/05 11:34:34;;;;;;;3.97;2.57;;;;;;;;;;4995305;28;20442;-63
2023/10/05 11:37:11;;;;;;;3.30;2.63;;;;;;;;;;4994914;28;20457;-63
2023/10/05 11:39:40;;;;;;;2.90;2.60;;;;;;;;;;4995051;28;20442;-63
2023/10/05 11:42:06;;;;;;;6.53;2.43;;;;;;;;;;4995089;28;20417;-63
2023/10/05 11:44:32;;;;;;;4.00;2.40;;;;;;;;;;4994904;28;20548;-63
2023/10/05 11:46:58;;;;;;;2.20;2.10;;;;;;;;;;4994426;28;20450;-63
2023/10/05 11:49:30;;;;;;;4.70;2.70;;;;;;;;;;4993862;28;20458;-64
2023/10/05 11:51:56;;;;;;;3.17;2.13;;;;;;;;;;4994995;28;20414;-63
2023/10/05 11:54:30;;;;;;;2.73;2.53;;;;;;;;;;4993443;28;20592;-63
2023/10/05 11:56:56;;;;;;;2.70;1.80;;;;;;;;;;4993486;28;20429;-63
2023/10/05 11:59:31;;;;;;;3.90;2.37;;;;;;;;;;4994532;28;20414;-64
2023/10/05 12:01:57;;;;;;;4.03;2.23;;;;;;;;;;4994528;28;20443;-64
2023/10/05 12:04:29;;;;;;;15.60;2.50;;;;;;;;;;4994229;28;20802;-65
2023/10/05 12:06:58;;;;;;;2.60;2.40;;;;;;;;;;4994534;28;20439;-64
2023/10/05 12:09:42;;;;;;;2.57;2.23;;;;;;;;;;4994595;28;20409;-63
2023/10/05 12:12:13;;;;;;;9.10;3.03;;;;;;;;;;4994527;28;20417;-63
2023/10/05 12:14:39;;;;;;;3.40;1.97;;;;;;;;;;4994595;28;20451;-63
2023/10/05 12:17:05;;;;;;;2.73;2.37;;;;;;;;;;4993675;28;20829;-64
2023/10/05 12:19:33;;;;;;;3.50;1.97;;;;;;;;;;4994399;28;20416;-63
2023/10/05 12:22:00;;;;;;;2.30;2.20;;;;;;;;;;4994637;28;20404;-63
2023/10/05 12:24:30;;;;;;;5.33;2.17;;;;;;;;;;4994317;28;20407;-65
2023/10/05 12:26:59;;;;;;;4.53;2.30;;;;;;;;;;4994057;28;20472;-63
2023/10/05 12:29:26;;;;;;;9.33;2.63;;;;;;;;;;4993605;28;20444;-64
2023/10/05 12:31:52;;;;;;;3.27;1.87;;;;;;;;;;4992761;28;20499;-71
2023/10/05 12:34:23;;;;;;;2.23;2.00;;;;;;;;;;4994033;28;20420;-63
2023/10/05 12:36:49;;;;;;;2.10;1.90;;;;;;;;;;4993734;28;20466;-63
2023/10/05 12:39:27;;;;;;;2.10;2.00;;;;;;;;;;4993010;28;20442;-63
2023/10/05 12:41:57;;;;;;;2.40;2.17;;;;;;;;;;4993984;28;20421;-62
2023/10/05 12:44:23;;;;;;;7.00;2.00;;;;;;;;;;4993413;28;20410;-63
2023/10/05 12:46:51;;;;;;;4.60;4.20;;;;;;;;;;4993897;28;20435;-63
2023/10/05 12:49:18;;;;;;;3.07;2.30;;;;;;;;;;4992801;28;20505;-64
2023/10/05 12:51:45;;;;;;;2.93;2.80;;;;;;;;;;4993927;28;20549;-63
2023/10/05 12:54:28;;;;;;;2.80;2.00;;;;;;;;;;4993619;28;20418;-63
2023/10/05 12:56:54;;;;;;;3.37;2.33;;;;;;;;;;4993899;28;20439;-63
2023/10/05 12:59:20;;;;;;;2.33;2.23;;;;;;;;;;4993619;28;20417;-64
2023/10/05 13:01:47;;;;;;;4.83;2.30;;;;;;;;;;4993247;28;20423;-65
2023/10/05 13:04:13;;;;;;;5.97;2.60;;;;;;;;;;4993404;28;20418;-63
2023/10/05 13:06:40;;;;;;;2.33;2.23;;;;;;;;;;4993731;28;20419;-64
2023/10/05 13:09:11;;;;;;;4.03;2.27;;;;;;;;;;4992839;28;20508;-62
2023/10/05 13:11:39;;;;;;;5.07;2.93;;;;;;;;;;4992776;28;20501;-64
2023/10/05 13:14:08;;;;;;;3.20;2.83;;;;;;;;;;4993045;28;20422;-63
2023/10/05 13:16:35;;;;;;;3.60;3.23;;;;;;;;;;4992911;28;20419;-63
2023/10/05 13:19:01;;;;;;;2.63;2.40;;;;;;;;;;4993374;28;20446;-64
2023/10/05 13:21:28;;;;;;;4.27;2.47;;;;;;;;;;4992805;28;20451;-63
2023/10/05 13:23:54;;;;;;;4.03;2.23;;;;;;;;;;4992848;28;20521;-63
2023/10/05 13:26:21;;;;;;;3.13;2.37;;;;;;;;;;4992928;28;20527;-62
2023/10/05 13:28:48;;;;;;;3.30;3.00;;;;;;;;;;4992669;28;20482;-63
2023/10/05 13:31:20;;;;;;;3.77;2.97;;;;;;;;;;4992953;28;20499;-63
2023/10/05 13:33:47;;;;;;;4.67;2.77;;;;;;;;;;4992867;28;21018;-63
2023/10/05 13:36:14;;;;;;;3.43;2.90;;;;;;;;;;4992550;28;20452;-63
2023/10/05 13:38:43;;;;;;;3.80;3.07;;;;;;;;;;4993653;28;20428;-63
2023/10/05 13:41:18;;;;;;;4.20;3.33;;;;;;;;;;4992217;28;20447;-63
2023/10/05 13:43:45;;;;;;;3.40;3.10;;;;;;;;;;4992741;28;20470;-63
2023/10/05 13:46:19;;;;;;;7.20;2.90;;;;;;;;;;4992950;28;20791;-62
2023/10/05 13:48:53;;;;;;;4.40;2.90;;;;;;;;;;4992985;28;20481;-63
2023/10/05 13:51:19;;;;;;;3.33;3.03;;;;;;;;;;4993276;28;20501;-62
2023/10/05 13:53:55;;;;;;;2.30;2.20;;;;;;;;;;4991739;28;20479;-62
2023/10/05 13:56:27;;;;;;;3.73;2.80;;;;;;;;;;4992161;28;20456;-63
2023/10/05 13:59:01;;;;;;;4.87;3.03;;;;;;;;;;4992927;28;20501;-62
2023/10/05 14:01:32;;;;;;;4.73;3.53;;;;;;;;;;4990961;28;20419;-62
2023/10/05 14:03:58;;;;;;;3.70;2.37;;;;;;;;;;4990740;28;20446;-63
2023/10/05 14:06:28;;;;;;;2.60;2.40;;;;;;;;;;4992499;28;20419;-62
2023/10/05 14:08:57;;;;;;;4.33;2.80;;;;;;;;;;4991213;28;20483;-62
2023/10/05 14:11:23;;;;;;;7.87;3.30;;;;;;;;;;4991891;28;20423;-64
2023/10/05 14:13:49;;;;;;;3.20;2.73;;;;;;;;;;4992672;28;20469;-62
2023/10/05 14:16:15;;;;;;;8.03;3.67;;;;;;;;;;4992176;28;20417;-63
2023/10/05 14:18:41;;;;;;;7.77;6.00;;;;;;;;;;4992082;28;20414;-62
2023/10/05 14:21:10;;;;;;;13.83;11.17;;;;;;;;;;4992135;28;20500;-63
2023/10/05 14:23:36;;;;;;;4.27;3.03;;;;;;;;;;4990841;28;20963;-62
2023/10/05 14:26:05;;;;;;;8.20;3.50;;;;;;;;;;4991411;28;21010;-63
2023/10/05 14:28:32;;;;;;;4.47;3.20;;;;;;;;;;4991788;28;20505;-63
2023/10/05 14:30:58;;;;;;;4.90;2.97;;;;;;;;;;4992205;28;20436;-62
2023/10/05 14:33:26;;;;;;;9.23;3.10;;;;;;;;;;4992139;28;20512;-62
2023/10/05 14:35:57;;;;;;;3.20;2.90;;;;;;;;;;4992083;28;20407;-63
2023/10/05 14:38:25;;;;;;;4.43;3.57;;;;;;;;;;4991997;28;20425;-62
2023/10/05 14:40:53;;;;;;;5.03;3.40;;;;;;;;;;4991735;28;20418;-63
2023/10/05 14:43:32;;;;;;;7.37;4.00;;;;;;;;;;4992321;28;20909;-62
2023/10/05 14:46:01;;;;;;;3.23;2.57;;;;;;;;;;4992541;28;20422;-62
2023/10/05 14:48:30;;;;;;;7.23;3.80;;;;;;;;;;4992351;28;20484;-62
2023/10/05 14:50:57;;;;;;;6.70;3.70;;;;;;;;;;4992237;28;20434;-62
2023/10/05 14:53:24;;;;;;;3.60;3.30;;;;;;;;;;4992217;28;20909;-62
2023/10/05 14:55:51;;;;;;;10.10;4.10;;;;;;;;;;4991785;28;20410;-62
2023/10/05 14:58:18;;;;;;;6.80;3.67;;;;;;;;;;4992374;28;20433;-62
2023/10/05 15:00:45;;;;;;;3.50;3.20;;;;;;;;;;4991966;28;20418;-62
2023/10/05 15:03:15;;;;;;;5.00;3.90;;;;;;;;;;4992267;28;20412;-62
2023/10/05 15:05:43;;;;;;;8.60;4.23;;;;;;;;;;4990776;28;20936;-62
2023/10/05 15:08:13;;;;;;;4.90;3.80;;;;;;;;;;4991781;28;20477;-62
2023/10/05 15:10:40;;;;;;;8.87;4.10;;;;;;;;;;4992035;28;20442;-62
2023/10/05 15:13:06;;;;;;;6.80;4.30;;;;;;;;;;4995134;28;20421;-62
2023/10/05 15:15:32;;;;;;;9.00;5.00;;;;;;;;;;4995610;28;20426;-62
2023/10/05 15:17:58;;;;;;;4.03;3.63;;;;;;;;;;4995431;28;20784;-63
2023/10/05 15:20:25;;;;;;;9.30;3.80;;;;;;;;;;4995390;28;20944;-64
2023/10/05 15:22:55;;;;;;;7.67;4.63;;;;;;;;;;4995166;28;20487;-62
2023/10/05 15:25:21;;;;;;;16.30;11.70;;;;;;;;;;4995551;28;20462;-62
2023/10/05 15:27:49;;;;;;;14.20;7.20;;;;;;;;;;4995291;28;20547;-63